Time;durP1;ratioP1;P1;durP2;ratioP2;P2;SDS_P1;SDS_P2;PMS_P1;PMS_P2;Temp;Humidity;BMP_temperature;BMP_pressure;BME280_temperature;BME280_humidity;BME280_pressure;Samples;Min_cycle;Max_cycle;Signal;HPM_P1;HPM_P2
2022/12/11 00:01:54;;;;;;;5.85;5.25;;;15.70;91.00;;;;;;4157238;28;20229;-75
2022/12/11 00:03:56;;;;;;;7.13;5.80;;;15.70;91.00;;;;;;4159499;28;20236;-75
2022/12/11 00:05:59;;;;;;;6.63;5.88;;;15.60;91.20;;;;;;4161991;28;20969;-75
2022/12/11 00:08:01;;;;;;;6.75;5.82;;;15.70;91.00;;;;;;4153364;28;20217;-75
2022/12/11 00:10:04;;;;;;;8.68;6.00;;;15.70;91.10;;;;;;4163205;28;20960;-75
2022/12/11 00:12:07;;;;;;;7.07;5.50;;;15.70;90.90;;;;;;4162934;28;20703;-75
2022/12/11 00:14:10;;;;;;;6.83;5.63;;;15.60;90.90;;;;;;4162088;28;20235;-75
2022/12/11 00:16:14;;;;;;;7.20;5.70;;;15.60;91.50;;;;;;4162632;28;20622;-75
2022/12/11 00:18:16;;;;;;;7.07;5.55;;;15.60;91.10;;;;;;4157558;28;20212;-77
2022/12/11 00:20:18;;;;;;;7.40;5.78;;;15.70;91.20;;;;;;4151682;28;20785;-76
2022/12/11 00:22:21;;;;;;;6.32;5.70;;;15.60;91.00;;;;;;4159044;28;20271;-75
2022/12/11 00:24:23;;;;;;;6.85;4.90;;;15.70;91.20;;;;;;4154273;28;20286;-76
2022/12/11 00:26:26;;;;;;;7.57;6.57;;;15.60;91.00;;;;;;4161764;28;20675;-76
2022/12/11 00:28:28;;;;;;;7.13;5.47;;;15.60;91.30;;;;;;4162032;28;20213;-76
2022/12/11 00:30:30;;;;;;;6.55;5.32;;;15.60;91.10;;;;;;4163114;28;20735;-76
2022/12/11 00:32:34;;;;;;;7.15;5.43;;;15.60;91.20;;;;;;4161325;28;20287;-76
2022/12/11 00:34:37;;;;;;;8.10;5.68;;;15.60;91.10;;;;;;4161524;28;20251;-76
2022/12/11 00:36:39;;;;;;;6.30;5.18;;;15.60;91.20;;;;;;4165812;28;20278;-76
2022/12/11 00:38:42;;;;;;;6.38;5.43;;;15.60;90.90;;;;;;4165915;28;20224;-76
2022/12/11 00:40:45;;;;;;;7.50;5.20;;;15.60;91.20;;;;;;4157755;28;20275;-76
2022/12/11 00:42:47;;;;;;;7.80;5.30;;;15.60;91.20;;;;;;4162232;28;20265;-76
2022/12/11 00:44:50;;;;;;;6.60;5.50;;;15.60;91.00;;;;;;4165478;28;20690;-76
2022/12/11 00:46:52;;;;;;;8.00;5.55;;;15.60;91.30;;;;;;4165487;28;20677;-76
2022/12/11 00:48:56;;;;;;;6.75;5.47;;;15.60;91.20;;;;;;4165971;28;20275;-76
2022/12/11 00:50:58;;;;;;;6.32;5.30;;;15.60;91.30;;;;;;4165945;28;20581;-76
2022/12/11 00:53:01;;;;;;;5.65;4.93;;;15.60;91.00;;;;;;4165700;28;20633;-76
2022/12/11 00:55:03;;;;;;;5.70;4.93;;;15.60;91.20;;;;;;4165409;28;20407;-76
2022/12/11 00:57:06;;;;;;;7.68;5.22;;;15.60;91.10;;;;;;4164330;28;20540;-76
2022/12/11 00:59:08;;;;;;;6.50;5.18;;;15.60;91.00;;;;;;4165303;28;20258;-76
2022/12/11 01:01:13;;;;;;;6.05;5.07;;;15.60;91.00;;;;;;4162246;28;20238;-76
2022/12/11 01:03:17;;;;;;;6.40;5.15;;;15.60;91.00;;;;;;4152665;28;20224;-76
2022/12/11 01:05:21;;;;;;;5.88;4.95;;;15.60;91.10;;;;;;4165630;28;20236;-76
2022/12/11 01:07:23;;;;;;;5.50;4.90;;;15.60;91.00;;;;;;4165603;28;20673;-76
2022/12/11 01:11:45;;;;;;;5.47;4.80;;;15.60;91.50;;;;;;4165620;28;20623;-76
2022/12/11 01:13:48;;;;;;;6.43;5.50;;;15.60;91.00;;;;;;4164360;28;20254;-76
2022/12/11 01:15:52;;;;;;;5.85;5.10;;;15.60;91.20;;;;;;4165401;28;20217;-76
2022/12/11 01:17:54;;;;;;;6.28;5.15;;;15.60;91.20;;;;;;4165403;28;20216;-76
2022/12/11 01:19:57;;;;;;;6.00;4.78;;;15.60;91.10;;;;;;4165382;28;20216;-76
2022/12/11 01:22:00;;;;;;;6.88;5.00;;;15.60;91.10;;;;;;4161435;28;20270;-76
2022/12/11 01:24:03;;;;;;;6.90;5.05;;;15.60;91.10;;;;;;4165052;28;20217;-76
2022/12/11 01:26:07;;;;;;;5.75;4.82;;;15.60;91.00;;;;;;4164879;28;20220;-76
2022/12/11 01:28:10;;;;;;;5.78;5.18;;;15.60;91.00;;;;;;4164692;28;20224;-76
2022/12/11 01:30:13;;;;;;;5.28;4.72;;;15.60;90.90;;;;;;4162300;28;20982;-76
2022/12/11 01:32:15;;;;;;;5.30;4.43;;;15.60;91.20;;;;;;4164581;28;20633;-76
2022/12/11 01:34:18;;;;;;;5.68;4.45;;;15.60;91.20;;;;;;4164960;28;20216;-76
2022/12/11 01:36:22;;;;;;;5.53;4.85;;;15.60;91.00;;;;;;4157027;28;20722;-76
2022/12/11 01:38:26;;;;;;;6.10;5.05;;;15.60;91.20;;;;;;4164614;28;20220;-76
2022/12/11 01:40:28;;;;;;;5.03;4.45;;;15.50;91.10;;;;;;4164893;28;20259;-76
2022/12/11 01:42:31;;;;;;;5.63;5.03;;;15.60;91.20;;;;;;4164699;28;20243;-76
2022/12/11 01:45:22;;;;;;;5.43;4.82;;;15.60;91.20;;;;;;4160464;28;20241;-76
2022/12/11 01:47:24;;;;;;;5.97;4.70;;;15.50;91.20;;;;;;4162885;28;20208;-76
2022/12/11 01:49:28;;;;;;;6.63;5.10;;;15.50;91.10;;;;;;4165022;28;20357;-76
2022/12/11 01:51:34;;;;;;;5.70;4.75;;;15.60;91.20;;;;;;4165285;28;20660;-76
2022/12/11 01:53:42;;;;;;;5.07;4.57;;;15.50;91.10;;;;;;4164708;28;20258;-76
2022/12/11 01:55:46;;;;;;;5.45;4.72;;;15.50;91.30;;;;;;4164758;28;20263;-76
2022/12/11 01:57:51;;;;;;;5.67;4.67;;;15.50;91.30;;;;;;4165013;28;20220;-76
2022/12/11 01:59:53;;;;;;;6.00;4.78;;;15.50;91.10;;;;;;4164684;28;20291;-76
2022/12/11 02:01:59;;;;;;;5.00;4.50;;;15.60;91.00;;;;;;4162357;28;20221;-76
2022/12/11 02:04:02;;;;;;;5.70;5.10;;;15.50;91.10;;;;;;4164686;28;20220;-76
2022/12/11 02:06:05;;;;;;;5.82;4.68;;;15.50;91.10;;;;;;4159467;28;20290;-76
2022/12/11 02:08:08;;;;;;;5.53;4.75;;;15.50;91.10;;;;;;4161227;28;20221;-76
2022/12/11 02:10:12;;;;;;;7.90;5.00;;;15.50;91.00;;;;;;4164688;28;20657;-75
2022/12/11 02:12:22;;;;;;;6.55;4.97;;;15.50;91.10;;;;;;4164547;28;20278;-76
2022/12/11 02:14:32;;;;;;;5.40;4.80;;;15.50;90.90;;;;;;4157348;28;20266;-76
2022/12/11 02:16:43;;;;;;;6.25;5.00;;;15.50;91.10;;;;;;4163942;28;20216;-76
2022/12/11 02:18:53;;;;;;;5.95;5.03;;;15.50;91.10;;;;;;4153755;28;20216;-76
2022/12/11 02:21:03;;;;;;;5.50;4.90;;;15.50;91.00;;;;;;4158698;28;20223;-76
2022/12/11 02:23:21;;;;;;;5.55;4.55;;;15.50;91.00;;;;;;4164225;28;20262;-76
2022/12/11 02:25:32;;;;;;;5.80;4.50;;;15.50;91.10;;;;;;4164207;28;20630;-76
2022/12/11 02:27:40;;;;;;;5.97;5.38;;;15.50;91.10;;;;;;4164151;28;20768;-76
2022/12/11 02:29:50;;;;;;;5.53;4.60;;;15.50;91.10;;;;;;4158503;28;20221;-76
2022/12/11 02:31:58;;;;;;;7.35;5.40;;;15.50;91.10;;;;;;4155918;28;20231;-76
2022/12/11 02:34:04;;;;;;;5.32;4.40;;;15.50;91.10;;;;;;4159720;28;20716;-76
2022/12/11 02:36:09;;;;;;;5.72;4.50;;;15.50;91.10;;;;;;4157095;28;20275;-76
2022/12/11 02:38:16;;;;;;;6.57;4.80;;;15.50;91.10;;;;;;4163745;28;20266;-76
2022/12/11 02:40:23;;;;;;;5.40;4.68;;;15.50;91.10;;;;;;4164563;28;20221;-76
2022/12/11 02:42:31;;;;;;;5.82;4.95;;;15.50;91.00;;;;;;4163885;28;20254;-76
2022/12/11 02:44:34;;;;;;;5.00;4.47;;;15.50;91.10;;;;;;4163749;28;20278;-76
2022/12/11 02:46:39;;;;;;;5.73;4.50;;;15.50;91.10;;;;;;4163800;28;20266;-76
2022/12/11 02:48:42;;;;;;;5.65;4.60;;;15.50;91.50;;;;;;4163688;28;20259;-76
2022/12/11 02:50:48;;;;;;;5.45;4.70;;;15.50;91.00;;;;;;4150248;28;20643;-76
2022/12/11 02:52:54;;;;;;;5.60;4.63;;;15.50;91.10;;;;;;4156979;28;20709;-76
2022/12/11 02:55:01;;;;;;;5.28;4.63;;;15.50;91.10;;;;;;4163424;28;20212;-76
2022/12/11 02:57:07;;;;;;;5.70;4.67;;;15.50;91.10;;;;;;4163273;28;20228;-76
2022/12/11 02:59:14;;;;;;;5.57;4.60;;;15.50;90.90;;;;;;4163774;28;20216;-75
2022/12/11 03:01:17;;;;;;;5.65;5.07;;;15.50;91.10;;;;;;4163249;28;20584;-76
2022/12/11 03:03:21;;;;;;;5.63;4.82;;;15.50;91.20;;;;;;4163900;28;20263;-76
2022/12/11 03:05:25;;;;;;;6.15;4.65;;;15.40;91.00;;;;;;4163920;28;20232;-76
2022/12/11 03:07:32;;;;;;;5.47;4.85;;;15.50;91.10;;;;;;4163610;28;20220;-76
2022/12/11 03:09:35;;;;;;;6.30;4.80;;;15.50;91.00;;;;;;4160232;28;20247;-76
2022/12/11 03:11:37;;;;;;;4.95;4.45;;;15.50;91.10;;;;;;4164075;28;20208;-76
2022/12/11 03:13:41;;;;;;;6.50;5.13;;;15.40;91.10;;;;;;4163361;28;20216;-76
2022/12/11 03:15:56;;;;;;;4.95;4.40;;;15.40;91.10;;;;;;4163116;28;20220;-76
2022/12/11 03:18:08;;;;;;;6.05;4.90;;;15.40;91.10;;;;;;4163700;28;20212;-75
2022/12/11 03:20:18;;;;;;;5.25;4.57;;;15.40;91.10;;;;;;4163344;28;20220;-76
2022/12/11 03:22:26;;;;;;;5.00;4.50;;;15.50;91.10;;;;;;4159088;28;20630;-76
2022/12/11 03:24:37;;;;;;;4.97;4.40;;;15.50;91.10;;;;;;4163009;28;20208;-76
2022/12/11 03:26:43;;;;;;;5.90;4.72;;;15.50;91.10;;;;;;4154281;28;20235;-76
2022/12/11 03:28:50;;;;;;;6.28;4.95;;;15.40;91.10;;;;;;4163356;28;20270;-76
2022/12/11 03:30:54;;;;;;;4.78;4.28;;;15.40;91.10;;;;;;4162732;28;20718;-75
2022/12/11 03:33:00;;;;;;;5.93;4.90;;;15.40;91.10;;;;;;4162869;28;20609;-75
2022/12/11 03:35:08;;;;;;;4.97;4.47;;;15.40;91.10;;;;;;4163276;28;20247;-75
2022/12/11 03:37:14;;;;;;;4.40;3.90;;;15.50;91.10;;;;;;4163109;28;20315;-75
2022/12/11 03:39:21;;;;;;;5.05;4.47;;;15.50;91.20;;;;;;4162982;28;20270;-75
2022/12/11 03:41:27;;;;;;;4.90;4.40;;;15.50;91.00;;;;;;4162171;28;20212;-75
2022/12/11 03:43:30;;;;;;;5.40;4.53;;;15.40;91.10;;;;;;4163420;28;20615;-75
2022/12/11 03:45:34;;;;;;;7.13;5.25;;;15.40;91.10;;;;;;4163042;28;20236;-75
2022/12/11 03:47:37;;;;;;;5.23;4.73;;;15.40;91.20;;;;;;4163033;28;20267;-75
2022/12/11 03:49:41;;;;;;;5.63;4.80;;;15.40;91.50;;;;;;4162920;28;20643;-75
2022/12/11 03:51:46;;;;;;;5.45;4.90;;;15.40;91.10;;;;;;4162669;28;20228;-75
2022/12/11 03:53:51;;;;;;;5.50;4.80;;;15.40;91.10;;;;;;4160678;28;20212;-75
2022/12/11 03:55:57;;;;;;;5.55;4.93;;;15.40;91.10;;;;;;4160381;28;20711;-75
2022/12/11 03:57:59;;;;;;;5.28;4.65;;;15.40;91.20;;;;;;4159108;28;20216;-75
2022/12/11 04:00:03;;;;;;;5.22;4.55;;;15.40;91.20;;;;;;4162969;28;20542;-75
2022/12/11 04:02:09;;;;;;;5.30;4.23;;;15.40;91.20;;;;;;4162570;28;20305;-75
2022/12/11 04:04:12;;;;;;;5.93;4.68;;;15.40;91.10;;;;;;4156031;28;20286;-75
2022/12/11 04:06:14;;;;;;;5.20;4.70;;;15.40;91.30;;;;;;4161815;28;20243;-75
2022/12/11 04:08:17;;;;;;;5.63;4.70;;;15.40;91.10;;;;;;4162438;28;20221;-75
2022/12/11 04:10:21;;;;;;;5.97;4.68;;;15.40;91.10;;;;;;4162752;28;20220;-75
2022/12/11 04:12:23;;;;;;;4.97;4.20;;;15.40;91.10;;;;;;4161952;28;20255;-75
2022/12/11 04:16:46;;;;;;;5.57;4.53;;;15.40;91.40;;;;;;4163064;28;20204;-75
2022/12/11 04:25:49;;;;;;;6.22;4.72;;;15.40;91.10;;;;;;4162650;28;20212;-75
2022/12/11 04:27:52;;;;;;;5.75;4.65;;;15.40;91.20;;;;;;4162353;28;20212;-75
2022/12/11 04:29:54;;;;;;;5.18;4.45;;;15.40;91.30;;;;;;4161703;28;20424;-75
2022/12/11 04:31:56;;;;;;;4.82;4.22;;;15.40;91.10;;;;;;4151124;28;20278;-75
2022/12/11 04:33:59;;;;;;;6.20;5.10;;;15.40;91.10;;;;;;4154697;28;20216;-75
2022/12/11 04:36:01;;;;;;;6.65;4.85;;;15.40;91.20;;;;;;4153943;28;20221;-75
2022/12/11 04:38:04;;;;;;;6.45;4.82;;;15.40;91.20;;;;;;4159904;28;20327;-75
2022/12/11 04:40:09;;;;;;;5.20;4.70;;;15.40;91.10;;;;;;4162315;28;20228;-75
2022/12/11 04:42:13;;;;;;;6.97;5.10;;;15.40;91.20;;;;;;4162581;28;20723;-75
2022/12/11 04:44:15;;;;;;;5.47;4.60;;;15.40;91.30;;;;;;4162289;28;20645;-75
2022/12/11 04:46:20;;;;;;;5.60;4.78;;;15.40;91.30;;;;;;4162063;28;20240;-75
2022/12/11 04:48:22;;;;;;;7.03;5.07;;;15.40;91.10;;;;;;4151059;28;20212;-75
2022/12/11 04:50:25;;;;;;;5.90;5.30;;;15.30;91.30;;;;;;4162402;28;20279;-75
2022/12/11 04:52:27;;;;;;;5.65;4.97;;;15.30;91.40;;;;;;4162474;28;20220;-75
2022/12/11 04:54:30;;;;;;;5.95;4.70;;;15.30;91.10;;;;;;4161976;28;20263;-75
2022/12/11 04:56:32;;;;;;;6.32;4.95;;;15.30;91.00;;;;;;4162326;28;20208;-75
2022/12/11 04:58:36;;;;;;;6.55;4.80;;;15.40;91.10;;;;;;4155300;28;20361;-75
2022/12/11 05:00:40;;;;;;;5.93;4.43;;;15.30;91.30;;;;;;4162505;28;20622;-75
2022/12/11 05:02:43;;;;;;;5.82;4.93;;;15.40;91.20;;;;;;4152395;28;20229;-75
2022/12/11 05:04:45;;;;;;;5.13;4.63;;;15.30;91.20;;;;;;4161577;28;20958;-75
2022/12/11 05:06:49;;;;;;;7.00;4.85;;;15.30;91.20;;;;;;4162462;28;20593;-75
2022/12/11 05:08:52;;;;;;;6.00;4.77;;;15.30;91.30;;;;;;4162365;28;20217;-75
2022/12/11 05:10:58;;;;;;;6.55;4.88;;;15.30;91.00;;;;;;4161923;28;20624;-75
2022/12/11 05:13:00;;;;;;;6.00;4.78;;;15.30;91.30;;;;;;4162248;28;20213;-75
2022/12/11 05:15:05;;;;;;;6.70;5.32;;;15.30;91.30;;;;;;4162387;28;20217;-75
2022/12/11 05:17:07;;;;;;;7.07;5.15;;;15.40;91.30;;;;;;4163404;28;20668;-75
2022/12/11 05:19:09;;;;;;;5.85;5.05;;;15.30;91.10;;;;;;4164926;28;20652;-75
2022/12/11 05:21:14;;;;;;;6.22;4.90;;;15.30;91.40;;;;;;4165068;28;20313;-76
2022/12/11 05:23:16;;;;;;;6.28;5.18;;;15.30;91.00;;;;;;4165205;28;20270;-75
2022/12/11 05:25:18;;;;;;;6.73;5.13;;;15.40;91.10;;;;;;4165161;28;20548;-75
2022/12/11 05:27:21;;;;;;;5.43;4.50;;;15.30;91.20;;;;;;4164982;28;20240;-75
2022/12/11 05:29:23;;;;;;;6.20;5.20;;;15.30;91.30;;;;;;4165316;28;20270;-75
2022/12/11 05:31:27;;;;;;;6.10;4.73;;;15.30;91.00;;;;;;4164981;28;20707;-75
2022/12/11 05:33:31;;;;;;;7.00;5.33;;;15.30;91.00;;;;;;4155120;28;20275;-75
2022/12/11 05:35:33;;;;;;;5.23;4.33;;;15.30;91.20;;;;;;4160349;28;20223;-75
2022/12/11 05:37:35;;;;;;;5.13;4.28;;;15.30;91.30;;;;;;4157372;28;20209;-75
2022/12/11 05:39:38;;;;;;;6.17;5.37;;;15.30;91.30;;;;;;4165095;28;20650;-75
2022/12/11 05:41:40;;;;;;;6.70;4.73;;;15.30;91.30;;;;;;4164445;28;20216;-75
2022/12/11 05:43:43;;;;;;;7.83;5.10;;;15.30;91.30;;;;;;4157816;28;20357;-75
2022/12/11 05:45:45;;;;;;;6.10;5.35;;;15.30;91.40;;;;;;4159934;28;20275;-76
2022/12/11 05:47:49;;;;;;;5.63;4.77;;;15.30;91.40;;;;;;4165050;28;20285;-75
2022/12/11 05:49:51;;;;;;;7.97;5.10;;;15.30;91.40;;;;;;4164756;28;20275;-75
2022/12/11 05:51:54;;;;;;;5.70;4.80;;;15.30;91.40;;;;;;4164705;28;20649;-75
2022/12/11 05:53:57;;;;;;;6.23;4.93;;;15.30;91.40;;;;;;4159918;28;20217;-75
2022/12/11 05:56:03;;;;;;;5.47;4.70;;;15.30;91.30;;;;;;4162153;28;20274;-75
2022/12/11 05:58:06;;;;;;;6.13;4.60;;;15.30;91.30;;;;;;4159971;28;20335;-75
2022/12/11 06:00:09;;;;;;;5.53;4.80;;;15.20;91.40;;;;;;4164597;28;20220;-75
2022/12/11 06:02:12;;;;;;;7.43;5.20;;;15.20;91.30;;;;;;4157219;28;20908;-75
2022/12/11 06:04:15;;;;;;;6.32;4.68;;;15.20;91.20;;;;;;4163502;28;20217;-75
2022/12/11 06:06:18;;;;;;;7.10;5.55;;;15.30;91.50;;;;;;4164479;28;20270;-75
2022/12/11 06:08:20;;;;;;;6.68;4.88;;;15.20;91.80;;;;;;4164396;28;21112;-75
2022/12/11 06:10:22;;;;;;;6.03;5.00;;;15.20;91.40;;;;;;4164437;28;20279;-75
2022/12/11 06:12:25;;;;;;;6.63;5.22;;;15.30;91.40;;;;;;4162802;28;20271;-75
2022/12/11 06:14:27;;;;;;;7.00;5.33;;;15.20;91.20;;;;;;4163954;28;20262;-75
2022/12/11 06:16:29;;;;;;;6.40;4.63;;;15.30;91.50;;;;;;4164504;28;20258;-75
2022/12/11 06:18:35;;;;;;;7.50;5.70;;;15.30;91.30;;;;;;4164089;28;20338;-75
2022/12/11 06:20:39;;;;;;;6.72;5.30;;;15.20;91.60;;;;;;4164144;28;20220;-75
2022/12/11 06:22:41;;;;;;;5.80;4.90;;;15.30;91.50;;;;;;4164040;28;20220;-75
2022/12/11 06:24:43;;;;;;;6.30;5.47;;;15.20;91.50;;;;;;4164143;28;20217;-75
2022/12/11 06:26:46;;;;;;;6.43;5.30;;;15.20;91.40;;;;;;4164149;28;20232;-76
2022/12/11 06:28:48;;;;;;;6.30;5.47;;;15.20;91.40;;;;;;4161770;28;20212;-75
2022/12/11 06:30:51;;;;;;;6.35;5.10;;;15.20;91.30;;;;;;4161578;28;20282;-75
2022/12/11 06:32:53;;;;;;;6.63;5.33;;;15.20;91.60;;;;;;4160628;28;20221;-76
2022/12/11 06:34:55;;;;;;;7.80;5.43;;;15.20;91.80;;;;;;4164038;28;20216;-75
2022/12/11 06:36:59;;;;;;;6.43;5.63;;;15.20;91.50;;;;;;4164265;28;20212;-75
2022/12/11 06:39:01;;;;;;;6.90;5.43;;;15.20;91.50;;;;;;4164028;28;20216;-75
2022/12/11 06:41:05;;;;;;;6.60;5.60;;;15.20;91.30;;;;;;4164020;28;20214;-75
2022/12/11 06:43:07;;;;;;;6.87;5.40;;;15.20;91.40;;;;;;4164007;28;20224;-75
2022/12/11 06:45:11;;;;;;;6.23;5.07;;;15.20;91.40;;;;;;4163894;28;20266;-75
2022/12/11 06:47:13;;;;;;;7.57;5.05;;;15.20;91.50;;;;;;4156773;28;20290;-75
2022/12/11 06:49:15;;;;;;;7.97;5.47;;;15.20;91.40;;;;;;4163890;28;20731;-75
2022/12/11 06:51:19;;;;;;;5.97;5.37;;;15.20;91.40;;;;;;4163795;28;20232;-75
2022/12/11 06:53:23;;;;;;;7.00;5.40;;;15.20;91.60;;;;;;4163690;28;20208;-75
2022/12/11 06:55:25;;;;;;;6.37;5.53;;;15.20;91.60;;;;;;4163700;28;20731;-75
2022/12/11 06:57:27;;;;;;;8.30;6.00;;;15.20;91.50;;;;;;4163769;28;20220;-75
2022/12/11 06:59:29;;;;;;;6.03;5.00;;;15.20;91.30;;;;;;4163527;28;20707;-76
2022/12/11 07:01:32;;;;;;;7.37;5.40;;;15.20;91.60;;;;;;4157745;28;20212;-75
2022/12/11 07:03:34;;;;;;;7.53;5.78;;;15.20;91.40;;;;;;4154879;28;20720;-75
2022/12/11 07:05:36;;;;;;;6.03;5.28;;;15.20;91.50;;;;;;4160464;28;20290;-75
2022/12/11 07:07:39;;;;;;;6.20;5.30;;;15.20;91.40;;;;;;4163276;28;20236;-75
2022/12/11 07:09:42;;;;;;;6.00;5.20;;;15.20;91.50;;;;;;4155511;28;20225;-75
2022/12/11 07:11:45;;;;;;;6.07;4.93;;;15.20;91.40;;;;;;4159526;28;20631;-75
2022/12/11 07:13:48;;;;;;;7.37;5.70;;;15.20;91.50;;;;;;4161389;28;20266;-76
2022/12/11 07:15:50;;;;;;;7.17;5.67;;;15.20;91.50;;;;;;4163401;28;20217;-75
2022/12/11 07:17:52;;;;;;;6.57;5.47;;;15.20;91.60;;;;;;4163730;28;20212;-75
2022/12/11 07:19:55;;;;;;;7.77;5.87;;;15.20;91.40;;;;;;4155417;28;20351;-75
2022/12/11 07:21:57;;;;;;;6.20;5.43;;;15.20;91.40;;;;;;4163185;28;20278;-75
2022/12/11 07:23:59;;;;;;;7.17;5.67;;;15.20;91.40;;;;;;4163473;28;20239;-75
2022/12/11 07:26:06;;;;;;;9.60;5.22;;;15.20;91.50;;;;;;4163334;28;20267;-75
2022/12/11 07:28:08;;;;;;;6.75;5.57;;;15.20;91.50;;;;;;4163074;28;20286;-75
2022/12/11 07:30:12;;;;;;;6.47;5.43;;;15.20;91.50;;;;;;4160511;28;20259;-75
2022/12/11 07:32:14;;;;;;;7.50;5.57;;;15.10;91.50;;;;;;4155924;28;20236;-75
2022/12/11 07:34:17;;;;;;;6.82;5.50;;;15.20;91.50;;;;;;4157724;28;20274;-75
2022/12/11 07:36:19;;;;;;;5.83;5.07;;;15.20;91.40;;;;;;4151837;28;20276;-75
2022/12/11 07:38:21;;;;;;;6.37;5.23;;;15.20;91.30;;;;;;4163062;28;20216;-75
2022/12/11 07:40:24;;;;;;;6.38;5.53;;;15.10;91.40;;;;;;4163047;28;20208;-75
2022/12/11 07:42:28;;;;;;;6.40;5.20;;;15.10;91.50;;;;;;4163157;28;20255;-75
2022/12/11 07:44:30;;;;;;;6.50;5.40;;;15.10;91.30;;;;;;4162986;28;20560;-75
2022/12/11 07:46:34;;;;;;;7.17;5.73;;;15.10;91.50;;;;;;4162706;28;20216;-75
2022/12/11 07:48:37;;;;;;;6.90;5.60;;;15.10;91.60;;;;;;4162634;28;20240;-76
2022/12/11 07:50:39;;;;;;;5.78;5.07;;;15.10;91.50;;;;;;4163015;28;20225;-75
2022/12/11 07:52:42;;;;;;;6.83;5.53;;;15.10;91.60;;;;;;4155103;28;20221;-76
2022/12/11 07:54:44;;;;;;;7.87;5.57;;;15.10;91.40;;;;;;4162847;28;20224;-76
2022/12/11 07:56:47;;;;;;;7.47;5.70;;;15.10;91.20;;;;;;4162908;28;20224;-75
2022/12/11 07:58:51;;;;;;;7.37;6.13;;;15.10;91.40;;;;;;4162811;28;20271;-76
2022/12/11 08:00:53;;;;;;;7.40;5.27;;;15.10;91.80;;;;;;4162534;28;20220;-75
2022/12/11 08:02:56;;;;;;;7.00;5.70;;;15.10;91.60;;;;;;4153399;28;20386;-75
2022/12/11 08:04:58;;;;;;;6.27;5.43;;;15.10;91.50;;;;;;4162792;28;20224;-75
2022/12/11 08:07:00;;;;;;;8.57;6.03;;;15.10;91.50;;;;;;4162907;28;20212;-75
2022/12/11 08:09:05;;;;;;;7.38;5.80;;;15.10;91.50;;;;;;4158322;28;20237;-75
2022/12/11 08:11:10;;;;;;;8.13;5.70;;;15.10;91.60;;;;;;4157351;28;20247;-75
2022/12/11 08:13:12;;;;;;;6.77;5.83;;;15.10;91.50;;;;;;4162539;28;20294;-75
2022/12/11 08:15:16;;;;;;;7.33;5.90;;;15.10;91.30;;;;;;4162640;28;20212;-75
2022/12/11 08:17:18;;;;;;;7.77;5.83;;;15.10;91.60;;;;;;4161810;28;20781;-75
2022/12/11 08:19:20;;;;;;;6.90;5.53;;;15.10;91.50;;;;;;4162971;28;20273;-76
2022/12/11 08:21:24;;;;;;;6.77;5.80;;;15.10;91.50;;;;;;4163048;28;20216;-75
2022/12/11 08:23:27;;;;;;;7.30;5.90;;;15.10;91.30;;;;;;4162468;28;20530;-75
2022/12/11 08:25:29;;;;;;;6.23;5.37;;;15.10;91.40;;;;;;4162524;28;20262;-75
2022/12/11 08:27:31;;;;;;;8.17;5.90;;;15.10;91.60;;;;;;4162700;28;20661;-75
2022/12/11 08:29:34;;;;;;;6.77;5.50;;;15.10;91.70;;;;;;4162493;28;20212;-75
2022/12/11 08:31:39;;;;;;;6.73;5.63;;;15.10;91.70;;;;;;4162587;28;20244;-75
2022/12/11 08:33:42;;;;;;;6.77;5.53;;;15.10;91.80;;;;;;4157631;28;20266;-76
2022/12/11 08:35:45;;;;;;;8.03;6.00;;;15.10;91.60;;;;;;4150140;28;20217;-75
2022/12/11 08:37:47;;;;;;;5.90;5.20;;;15.10;91.60;;;;;;4162184;28;20722;-75
2022/12/11 08:39:50;;;;;;;6.35;5.75;;;15.10;91.60;;;;;;4161890;28;20224;-75
2022/12/11 08:41:52;;;;;;;6.70;5.37;;;15.10;91.70;;;;;;4162659;28;20224;-75
2022/12/11 08:43:57;;;;;;;8.03;6.20;;;15.10;91.50;;;;;;4162297;28;20220;-75
2022/12/11 08:45:59;;;;;;;6.73;5.03;;;15.10;91.60;;;;;;4162495;28;20623;-75
2022/12/11 08:48:03;;;;;;;6.47;5.37;;;15.10;91.70;;;;;;4162584;28;20224;-75
2022/12/11 08:50:06;;;;;;;6.43;5.23;;;15.10;91.50;;;;;;4155779;28;20266;-75
2022/12/11 08:52:08;;;;;;;6.90;5.47;;;15.10;91.50;;;;;;4163430;28;20727;-75
2022/12/11 08:54:11;;;;;;;6.83;5.80;;;15.10;91.50;;;;;;4165630;28;20212;-75
2022/12/11 08:56:15;;;;;;;6.40;5.70;;;15.10;91.40;;;;;;4165565;28;20292;-75
2022/12/11 08:58:17;;;;;;;7.10;5.70;;;15.10;91.50;;;;;;4165754;28;20212;-75
2022/12/11 09:00:20;;;;;;;6.87;5.93;;;15.10;91.50;;;;;;4165615;28;20685;-75
2022/12/11 09:02:22;;;;;;;6.85;5.72;;;15.10;91.60;;;;;;4162634;28;20221;-75
2022/12/11 09:04:26;;;;;;;7.80;5.80;;;15.10;91.70;;;;;;4165515;28;20220;-75
2022/12/11 09:06:30;;;;;;;7.03;5.90;;;15.10;91.90;;;;;;4164970;28;20617;-75
2022/12/11 09:08:33;;;;;;;6.73;5.40;;;15.10;91.50;;;;;;4159353;28;20315;-75
2022/12/11 09:10:35;;;;;;;7.40;5.93;;;15.10;91.40;;;;;;4165197;28;20220;-75
2022/12/11 09:12:38;;;;;;;7.70;5.43;;;15.10;91.40;;;;;;4165439;28;20208;-75
2022/12/11 09:14:40;;;;;;;6.50;5.65;;;15.10;91.50;;;;;;4165236;28;20220;-75
2022/12/11 09:16:42;;;;;;;8.20;6.13;;;15.10;91.40;;;;;;4165528;28;20286;-75
2022/12/11 09:18:46;;;;;;;7.43;5.60;;;15.00;91.40;;;;;;4164312;28;20213;-76
2022/12/11 09:20:58;;;;;;;6.77;5.80;;;15.00;91.50;;;;;;4160201;28;20326;-75
2022/12/11 09:23:01;;;;;;;6.82;5.60;;;15.10;91.40;;;;;;4164349;28;20216;-75
2022/12/11 09:25:04;;;;;;;7.32;5.90;;;15.00;91.40;;;;;;4165341;28;20714;-75
2022/12/11 09:27:06;;;;;;;7.57;5.60;;;15.00;91.60;;;;;;4165020;28;20664;-75
2022/12/11 09:29:10;;;;;;;7.43;5.73;;;15.10;91.60;;;;;;4165015;28;20707;-75
2022/12/11 09:31:14;;;;;;;6.55;5.30;;;15.10;91.80;;;;;;4164626;28;20240;-75
2022/12/11 09:33:16;;;;;;;7.10;5.50;;;15.00;91.60;;;;;;4161051;28;20617;-75
2022/12/11 09:35:19;;;;;;;7.35;5.88;;;15.00;91.50;;;;;;4165174;28;20208;-76
2022/12/11 09:37:22;;;;;;;7.22;6.10;;;15.10;91.50;;;;;;4165239;28;20669;-75
2022/12/11 09:39:25;;;;;;;7.70;5.88;;;15.00;91.50;;;;;;4164904;28;20212;-75
2022/12/11 09:41:35;;;;;;;6.47;5.60;;;15.10;91.60;;;;;;4164536;28;20225;-75
2022/12/11 09:43:42;;;;;;;6.07;5.47;;;15.10;91.50;;;;;;4165310;28;20220;-76
2022/12/11 09:45:44;;;;;;;6.85;5.75;;;15.10;91.40;;;;;;4165101;28;20220;-75
2022/12/11 09:47:49;;;;;;;6.70;5.70;;;15.10;91.70;;;;;;4164889;28;20266;-75
2022/12/11 09:49:58;;;;;;;7.22;5.72;;;15.00;91.70;;;;;;4164909;28;20770;-75
2022/12/11 09:52:10;;;;;;;5.55;5.03;;;15.10;91.70;;;;;;4157195;28;20266;-75
2022/12/11 09:54:15;;;;;;;6.27;5.60;;;15.00;91.70;;;;;;4164608;28;20217;-75
2022/12/11 09:56:21;;;;;;;6.97;5.47;;;15.10;91.50;;;;;;4164645;28;20220;-75
2022/12/11 09:58:33;;;;;;;6.00;5.40;;;15.10;91.60;;;;;;4164688;28;20216;-76
2022/12/11 10:00:40;;;;;;;6.50;5.43;;;15.10;91.60;;;;;;4164365;28;20285;-75
2022/12/11 10:03:14;;;;;;;7.18;5.43;;;15.10;91.60;;;;;;4163653;28;20622;-75
2022/12/11 10:05:26;;;;;;;6.60;5.65;;;15.00;91.70;;;;;;4158521;28;20259;-75
2022/12/11 10:07:37;;;;;;;7.73;5.43;;;15.10;91.80;;;;;;4164412;28;20220;-75
2022/12/11 10:09:50;;;;;;;7.28;5.45;;;15.00;91.70;;;;;;4164429;28;20258;-75
2022/12/11 10:12:05;;;;;;;6.18;5.22;;;15.00;91.70;;;;;;4164532;28;20255;-75
2022/12/11 10:14:16;;;;;;;5.97;4.82;;;15.10;91.70;;;;;;4164627;28;20224;-75
2022/12/11 10:16:31;;;;;;;6.45;5.35;;;15.00;91.90;;;;;;4164032;28;20220;-75
2022/12/11 10:18:34;;;;;;;7.07;5.27;;;15.00;91.60;;;;;;4164576;28;20269;-75
2022/12/11 10:20:39;;;;;;;7.50;6.03;;;15.10;91.80;;;;;;4164343;28;20216;-75
2022/12/11 10:22:41;;;;;;;6.90;5.57;;;15.00;91.80;;;;;;4157906;28;20229;-76
2022/12/11 10:24:54;;;;;;;7.80;5.90;;;15.10;91.80;;;;;;4169335;28;20217;-75
2022/12/11 10:26:59;;;;;;;7.32;5.30;;;15.10;91.80;;;;;;4163663;28;20278;-75
2022/12/11 10:29:02;;;;;;;7.43;5.63;;;15.10;91.70;;;;;;4163987;28;20236;-75
2022/12/11 10:31:15;;;;;;;6.43;5.67;;;15.10;91.50;;;;;;4163970;28;20221;-75
2022/12/11 10:33:21;;;;;;;7.18;5.57;;;15.10;91.60;;;;;;4163742;28;20626;-75
2022/12/11 10:35:33;;;;;;;7.10;5.60;;;15.10;91.70;;;;;;4162385;28;20279;-75
2022/12/11 10:37:35;;;;;;;6.68;5.22;;;15.10;92.00;;;;;;4162612;28;20247;-75
2022/12/11 10:39:37;;;;;;;6.82;5.85;;;15.10;91.80;;;;;;4164378;28;20637;-76
2022/12/11 10:41:44;;;;;;;7.03;5.63;;;15.10;91.80;;;;;;4163901;28;20271;-75
2022/12/11 10:43:48;;;;;;;5.60;5.00;;;15.10;91.60;;;;;;4164059;28;20282;-75
2022/12/11 10:45:52;;;;;;;7.00;5.70;;;15.10;91.70;;;;;;4163722;28;20278;-75
2022/12/11 10:48:02;;;;;;;8.27;6.07;;;15.10;91.60;;;;;;4163700;28;20723;-75
2022/12/11 10:50:06;;;;;;;8.70;5.73;;;15.00;92.10;;;;;;4163545;28;20236;-75
2022/12/11 10:52:11;;;;;;;6.10;5.10;;;15.00;92.10;;;;;;4164226;28;20212;-75
2022/12/11 10:54:29;;;;;;;7.30;5.70;;;15.00;92.00;;;;;;4163814;28;20229;-75
2022/12/11 10:56:33;;;;;;;7.60;5.53;;;15.00;92.00;;;;;;4163983;28;20278;-75
2022/12/11 10:58:46;;;;;;;7.95;5.90;;;15.00;91.90;;;;;;4163796;28;20279;-75
2022/12/11 11:01:03;;;;;;;6.60;5.53;;;15.10;92.10;;;;;;4163559;28;20216;-75